CheckWX is a tool to help pilots better visualize weather data.  It is not intended as a substitute for an official pre-flight weather briefing.

20:29:47 UTC

KINW METAR
Winslow-Lindbergh Regional Airport
Winslow, Arizona, USA
Current

34 mins ago

KINW 041956Z AUTO 10SM CLR 36/M01 A3002 RMK AO2 SLP075 T03561006
Observed
Jun-4 @ 19:56 UTC
Visibility
Flight Rules
VFR
Cloud Levels
  • Clear skies
Temperature
36°C / 97°F
Dewpoint
-1°C / 30°F
Humidity
9%
Altimeter
30.02" Hg
Pressure
1016.62 hPa
Previous

2 hours ago

KINW 041856Z AUTO 33008G16KT 10SM CLR 35/01 A3005 RMK AO2 SLP083 T03500006
Observed
Jun-4 @ 18:56 UTC
Wind
  • 330° at 8 KTS
  • Gusting to 16 KTS
Visibility
Flight Rules
VFR
Cloud Levels
  • Clear skies
Temperature
35°C / 95°F
Dewpoint
C / 34°F
Humidity
11%
Altimeter
30.05" Hg
Pressure
1017.62 hPa
Previous

3 hours ago

KINW 041756Z AUTO VRB04KT 10SM CLR 33/02 A3007 RMK AO2 SLP093 T03280022 10328 20122 58006
Observed
Jun-4 @ 17:56 UTC
Wind
  • Variable at 4 KTS
Visibility
Flight Rules
VFR
Cloud Levels
  • Clear skies
Temperature
33°C / 91°F
Dewpoint
C / 36°F
Humidity
14%
Altimeter
30.07" Hg
Pressure
1018.32 hPa